createdAt,value
2023-01-29T00:02:15.944Z,26.90
2023-01-29T00:04:43.035Z,21.35
2023-01-29T00:07:09.994Z,27.08
2023-01-29T00:09:37.174Z,24.50
2023-01-29T00:12:04.283Z,28.60
2023-01-29T00:14:31.285Z,27.33
2023-01-29T00:16:58.300Z,33.47
2023-01-29T00:19:25.429Z,27.67
2023-01-29T00:21:52.616Z,33.75
2023-01-29T00:24:19.710Z,36.10
2023-01-29T00:26:47.133Z,34.90
2023-01-29T00:29:14.767Z,28.98
2023-01-29T00:31:45.163Z,32.83
2023-01-29T00:34:12.309Z,31.13
2023-01-29T00:36:39.448Z,38.25
2023-01-29T00:39:11.065Z,42.47
2023-01-29T00:41:57.199Z,33.53
2023-01-29T00:44:42.987Z,32.10
2023-01-29T00:47:28.587Z,28.23
2023-01-29T00:49:55.952Z,32.17
2023-01-29T00:52:26.241Z,31.27
2023-01-29T00:54:55.119Z,29.15
2023-01-29T00:57:23.383Z,34.95
2023-01-29T00:59:50.538Z,31.17
2023-01-29T01:02:36.050Z,30.95
2023-01-29T01:05:07.805Z,38.33
2023-01-29T01:07:34.939Z,39.30
2023-01-29T01:10:20.628Z,39.78
2023-01-29T01:13:04.713Z,49.70
2023-01-29T01:15:35.569Z,40.78
2023-01-29T01:18:04.263Z,48.67
2023-01-29T01:20:34.964Z,42.95
2023-01-29T01:23:02.615Z,34.17
2023-01-29T01:25:29.631Z,32.28
2023-01-29T01:30:27.101Z,30.98
2023-01-29T01:32:54.408Z,30.95
2023-01-29T01:35:21.614Z,35.53
2023-01-29T01:37:49.373Z,30.35
2023-01-29T01:40:19.692Z,29.38
2023-01-29T01:42:55.943Z,41.15
2023-01-29T01:45:29.115Z,34.38
2023-01-29T01:48:02.262Z,35.37
2023-01-29T01:50:37.320Z,31.23
2023-01-29T01:53:13.593Z,26.17
2023-01-29T01:55:49.235Z,29.25
2023-01-29T01:58:25.892Z,32.40
2023-01-29T02:00:53.793Z,25.33
2023-01-29T02:03:40.859Z,31.90
2023-01-29T02:06:27.851Z,31.20
2023-01-29T02:09:16.306Z,33.47
2023-01-29T02:11:43.422Z,29.65
2023-01-29T02:14:11.832Z,31.52
2023-01-29T02:16:39.324Z,33.15
2023-01-29T02:19:16.633Z,36.25
2023-01-29T02:22:22.936Z,27.17
2023-01-29T02:25:11.768Z,32.65
2023-01-29T02:27:41.864Z,32.63
2023-01-29T02:30:12.773Z,31.35
2023-01-29T02:32:58.719Z,29.77
2023-01-29T02:35:37.452Z,31.83
2023-01-29T02:38:32.941Z,28.35
2023-01-29T02:41:20.466Z,25.73
2023-01-29T02:43:55.809Z,24.58
2023-01-29T02:46:39.101Z,33.30
2023-01-29T02:49:19.149Z,29.63
2023-01-29T02:52:02.912Z,29.83
2023-01-29T02:54:43.276Z,35.63
2023-01-29T02:57:32.869Z,31.65
2023-01-29T03:00:09.404Z,29.73
2023-01-29T03:02:47.734Z,27.27
2023-01-29T03:05:25.575Z,27.60
2023-01-29T03:07:58.729Z,25.60
2023-01-29T03:10:44.308Z,29.23
2023-01-29T03:13:46.547Z,27.52
2023-01-29T03:16:22.274Z,25.92
2023-01-29T03:19:04.931Z,31.52
2023-01-29T03:21:55.228Z,32.67
2023-01-29T03:25:03.816Z,32.50
2023-01-29T03:27:58.701Z,32.10
2023-01-29T03:30:51.799Z,29.45
2023-01-29T03:33:32.644Z,35.95
2023-01-29T03:36:06.653Z,31.27
2023-01-29T03:38:33.867Z,30.67
2023-01-29T03:41:07.989Z,34.80
2023-01-29T03:43:44.935Z,28.63
2023-01-29T03:46:36.503Z,34.40
2023-01-29T03:49:11.953Z,32.35
2023-01-29T03:52:12.624Z,33.83
2023-01-29T03:54:55.023Z,39.38
2023-01-29T03:57:42.557Z,35.90
2023-01-29T04:00:27.953Z,44.42
2023-01-29T04:03:15.910Z,36.10
2023-01-29T04:08:27.494Z,43.17
2023-01-29T04:10:59.230Z,36.38
2023-01-29T04:13:30.129Z,37.50
2023-01-29T04:15:59.501Z,33.88
2023-01-29T04:18:49.754Z,31.63
2023-01-29T04:21:22.449Z,35.20
2023-01-29T04:23:49.446Z,36.53
2023-01-29T04:26:25.151Z,36.60
2023-01-29T04:29:24.382Z,32.20
2023-01-29T04:32:23.809Z,37.75
2023-01-29T04:35:01.483Z,36.10
2023-01-29T04:37:43.389Z,32.90
2023-01-29T04:40:23.529Z,35.08
2023-01-29T04:42:57.212Z,37.33
2023-01-29T04:45:34.284Z,37.50
2023-01-29T04:48:25.785Z,36.30
2023-01-29T04:50:55.498Z,34.20
2023-01-29T04:53:41.007Z,37.65
2023-01-29T04:56:11.869Z,36.08
2023-01-29T04:58:56.200Z,35.83
2023-01-29T05:01:28.861Z,31.70
2023-01-29T05:03:56.960Z,37.72
2023-01-29T05:06:25.034Z,34.13
2023-01-29T05:08:53.211Z,35.40
2023-01-29T05:11:20.511Z,37.00
2023-01-29T05:13:49.497Z,36.70
2023-01-29T05:16:26.736Z,36.20
2023-01-29T05:18:54.222Z,33.00
2023-01-29T05:21:23.182Z,33.95
2023-01-29T05:24:19.981Z,33.55
2023-01-29T05:27:07.137Z,38.65
2023-01-29T05:29:34.380Z,37.70
2023-01-29T05:32:01.715Z,32.85
2023-01-29T05:34:28.717Z,34.08
2023-01-29T05:36:55.774Z,35.45
2023-01-29T05:39:22.828Z,34.92
2023-01-29T05:41:49.810Z,34.13
2023-01-29T05:44:16.871Z,37.60
2023-01-29T05:46:44.082Z,35.20
2023-01-29T05:49:11.084Z,40.08
2023-01-29T05:51:38.384Z,33.10
2023-01-29T05:54:05.736Z,33.92
2023-01-29T05:56:32.655Z,33.28
2023-01-29T05:58:59.695Z,35.80
2023-01-29T06:01:26.766Z,32.83
2023-01-29T06:03:53.805Z,33.42
2023-01-29T06:06:20.819Z,35.08
2023-01-29T06:08:48.220Z,29.17
2023-01-29T06:11:16.445Z,36.22
2023-01-29T06:13:43.692Z,31.35
2023-01-29T06:16:13.180Z,35.85
2023-01-29T06:18:40.860Z,35.15
2023-01-29T06:21:11.137Z,38.55
2023-01-29T06:23:38.482Z,34.38
2023-01-29T06:26:11.461Z,34.47
2023-01-29T06:28:38.997Z,31.60
2023-01-29T06:31:37.455Z,36.08
2023-01-29T06:33:54.360Z,32.45
2023-01-29T06:36:21.361Z,32.08
2023-01-29T06:38:48.434Z,34.90
2023-01-29T06:41:18.910Z,38.50
2023-01-29T06:43:46.466Z,37.80
2023-01-29T06:46:13.652Z,28.83
2023-01-29T06:48:40.753Z,32.70
2023-01-29T06:51:09.436Z,32.25
2023-01-29T06:53:38.069Z,34.45
2023-01-29T06:56:06.281Z,33.05
2023-01-29T06:58:33.436Z,26.50
2023-01-29T07:01:08.674Z,39.25
2023-01-29T07:03:36.121Z,34.42
2023-01-29T07:06:03.544Z,40.45
2023-01-29T07:08:30.889Z,34.78
2023-01-29T07:11:01.732Z,37.53
2023-01-29T07:13:29.156Z,32.70
2023-01-29T07:16:00.737Z,32.90
2023-01-29T07:18:28.571Z,32.20
2023-01-29T07:20:56.118Z,38.20
2023-01-29T07:23:23.547Z,34.05
2023-01-29T07:25:51.255Z,29.05
2023-01-29T07:28:23.196Z,35.67
2023-01-29T07:30:50.225Z,31.90
2023-01-29T07:33:17.137Z,33.63
2023-01-29T07:35:44.233Z,37.58
2023-01-29T07:38:11.913Z,39.72
2023-01-29T07:40:39.049Z,34.47
2023-01-29T07:43:07.706Z,33.17
2023-01-29T07:45:36.896Z,37.88
2023-01-29T07:48:05.208Z,35.63
2023-01-29T07:50:34.186Z,36.65
2023-01-29T07:53:01.752Z,34.03
2023-01-29T07:55:28.878Z,28.73
2023-01-29T07:57:57.384Z,27.38
2023-01-29T08:00:24.721Z,32.45
2023-01-29T08:02:52.004Z,26.38
2023-01-29T08:05:19.083Z,26.58
2023-01-29T08:07:51.520Z,25.75
2023-01-29T08:10:28.220Z,25.67
2023-01-29T08:12:59.984Z,25.63
2023-01-29T08:15:27.663Z,26.48
2023-01-29T08:17:57.942Z,28.40
2023-01-29T08:20:26.134Z,27.50
2023-01-29T08:23:03.098Z,29.13
2023-01-29T08:25:30.346Z,27.30
2023-01-29T08:27:58.781Z,26.90
2023-01-29T08:30:28.450Z,30.55
2023-01-29T08:32:55.578Z,29.55
2023-01-29T08:35:22.628Z,26.83
2023-01-29T08:38:13.945Z,29.77
2023-01-29T08:40:50.752Z,38.17
2023-01-29T08:43:20.930Z,32.53
2023-01-29T08:45:48.244Z,37.55
2023-01-29T08:48:15.205Z,36.22
2023-01-29T08:50:42.277Z,33.78
2023-01-29T08:53:09.788Z,33.13
2023-01-29T08:55:39.082Z,31.05
2023-01-29T08:58:08.048Z,33.45
2023-01-29T09:00:35.830Z,31.02
2023-01-29T09:03:03.899Z,29.92
2023-01-29T09:05:31.116Z,39.95
2023-01-29T09:07:58.220Z,34.28
2023-01-29T09:10:26.114Z,29.85
2023-01-29T09:12:53.166Z,29.05
2023-01-29T09:15:20.252Z,34.67
2023-01-29T09:17:49.071Z,31.48
2023-01-29T09:20:16.985Z,32.88
2023-01-29T09:22:44.140Z,28.88
2023-01-29T09:25:11.339Z,32.95
2023-01-29T09:27:38.314Z,28.40
2023-01-29T09:30:06.909Z,30.45
2023-01-29T09:32:52.624Z,32.22
2023-01-29T09:35:22.966Z,30.75
2023-01-29T09:37:50.936Z,29.02
2023-01-29T09:40:41.191Z,31.17
2023-01-29T09:43:22.718Z,29.60
2023-01-29T09:46:05.554Z,34.95
2023-01-29T09:48:35.993Z,30.90
2023-01-29T09:51:11.641Z,31.60
2023-01-29T09:53:51.263Z,33.65
2023-01-29T09:56:21.849Z,34.40
2023-01-29T09:58:48.943Z,33.30
2023-01-29T10:01:38.973Z,30.55
2023-01-29T10:04:18.371Z,32.92
2023-01-29T10:06:57.147Z,33.55
2023-01-29T10:09:32.829Z,32.10
2023-01-29T10:12:31.832Z,32.85
2023-01-29T10:15:13.713Z,34.88
2023-01-29T10:17:59.454Z,37.33
2023-01-29T10:20:35.355Z,36.60
2023-01-29T10:23:20.222Z,37.28
2023-01-29T10:25:49.087Z,35.45
2023-01-29T10:28:24.611Z,35.47
2023-01-29T10:30:57.784Z,36.67
2023-01-29T10:33:48.785Z,37.80
2023-01-29T10:36:33.126Z,35.78
2023-01-29T10:39:00.309Z,40.17
2023-01-29T10:41:30.043Z,39.47
2023-01-29T10:44:35.145Z,38.17
2023-01-29T10:50:09.175Z,33.22
2023-01-29T10:52:47.114Z,32.03
2023-01-29T10:55:26.113Z,37.10
2023-01-29T10:58:22.830Z,37.47
2023-01-29T11:00:50.336Z,36.15
2023-01-29T11:03:33.002Z,43.15
2023-01-29T11:06:19.119Z,33.50
2023-01-29T11:09:16.706Z,32.25
2023-01-29T11:11:50.919Z,37.75
2023-01-29T11:14:38.061Z,41.75
2023-01-29T11:17:05.174Z,39.58
2023-01-29T11:19:43.621Z,39.72
2023-01-29T11:22:20.141Z,35.97
2023-01-29T11:25:06.832Z,38.25
2023-01-29T11:27:35.691Z,33.17
2023-01-29T11:30:02.958Z,35.38
2023-01-29T11:32:34.524Z,34.25
2023-01-29T11:35:06.364Z,35.40
2023-01-29T11:37:38.963Z,37.33
2023-01-29T11:40:24.415Z,36.80
2023-01-29T11:42:54.670Z,38.28
2023-01-29T11:45:29.972Z,31.55
2023-01-29T11:47:57.641Z,34.42
2023-01-29T11:50:31.752Z,36.08
2023-01-29T11:53:00.323Z,33.17
2023-01-29T11:55:48.116Z,34.22
2023-01-29T11:58:21.057Z,33.42
2023-01-29T12:00:51.171Z,31.75
2023-01-29T12:03:34.873Z,33.55
2023-01-29T12:06:07.164Z,33.25
2023-01-29T12:08:38.020Z,33.80
2023-01-29T12:11:15.794Z,33.67
2023-01-29T12:13:45.767Z,33.65
2023-01-29T12:16:23.757Z,35.83
2023-01-29T12:18:56.982Z,38.10
2023-01-29T12:21:45.563Z,31.63
2023-01-29T12:24:19.329Z,30.08
2023-01-29T12:27:24.943Z,31.23
2023-01-29T12:30:13.759Z,35.40
2023-01-29T12:33:01.168Z,31.83
2023-01-29T12:35:51.153Z,35.00
2023-01-29T12:38:19.075Z,33.55
2023-01-29T12:40:55.426Z,32.47
2023-01-29T12:43:32.298Z,35.60
2023-01-29T12:46:01.203Z,32.10
2023-01-29T12:48:41.107Z,29.60
2023-01-29T12:51:18.739Z,31.05
2023-01-29T12:53:53.264Z,28.98
2023-01-29T12:56:30.982Z,33.15
2023-01-29T12:59:01.745Z,29.30
2023-01-29T13:01:41.652Z,27.45
2023-01-29T13:04:51.084Z,30.80
2023-01-29T13:07:23.715Z,31.63
2023-01-29T13:09:55.450Z,34.78
2023-01-29T13:12:24.349Z,31.63
2023-01-29T13:15:14.674Z,31.35
2023-01-29T13:17:46.396Z,30.30
2023-01-29T13:20:43.519Z,31.08
2023-01-29T13:23:22.649Z,33.60
2023-01-29T13:25:53.728Z,32.08
2023-01-29T13:28:24.291Z,30.77
2023-01-29T13:31:29.911Z,29.23
2023-01-29T13:34:24.960Z,29.95
2023-01-29T13:36:57.980Z,31.55
2023-01-29T13:39:27.543Z,31.70
2023-01-29T13:41:55.911Z,36.63
2023-01-29T13:44:35.922Z,31.77
2023-01-29T13:47:11.381Z,30.05
2023-01-29T13:49:52.954Z,33.08
2023-01-29T13:52:40.994Z,30.17
2023-01-29T13:55:19.230Z,30.45
2023-01-29T13:57:50.268Z,30.25
2023-01-29T14:00:30.788Z,32.38
2023-01-29T14:03:00.703Z,29.88
2023-01-29T14:05:30.845Z,34.55
2023-01-29T14:08:02.536Z,30.52
2023-01-29T14:10:33.113Z,28.58
2023-01-29T14:13:18.143Z,30.42
2023-01-29T14:16:05.466Z,29.48
2023-01-29T14:18:35.056Z,30.05
2023-01-29T14:21:17.638Z,32.08
2023-01-29T14:23:49.886Z,28.10
2023-01-29T14:26:35.232Z,30.48
2023-01-29T14:29:33.771Z,28.05
2023-01-29T14:32:04.504Z,27.65
2023-01-29T14:34:57.929Z,30.48
2023-01-29T14:37:47.647Z,27.30
2023-01-29T14:40:20.195Z,29.85
2023-01-29T14:43:05.623Z,25.70
2023-01-29T14:45:37.616Z,27.85
2023-01-29T14:48:10.549Z,29.85
2023-01-29T14:50:37.935Z,28.90
2023-01-29T14:53:27.875Z,30.25
2023-01-29T14:56:14.239Z,28.20
2023-01-29T14:58:51.197Z,29.48
2023-01-29T15:01:32.583Z,26.13
2023-01-29T15:04:20.552Z,30.95
2023-01-29T15:07:01.333Z,28.90
2023-01-29T15:09:49.760Z,33.67
2023-01-29T15:12:44.098Z,29.65
2023-01-29T15:15:27.432Z,26.38
2023-01-29T15:18:06.603Z,28.57
2023-01-29T15:20:38.387Z,29.13
2023-01-29T15:23:33.011Z,28.25
2023-01-29T15:26:03.404Z,24.95
2023-01-29T15:28:32.448Z,26.08
2023-01-29T15:31:01.868Z,27.85
2023-01-29T15:33:29.303Z,29.20
2023-01-29T15:36:06.936Z,31.95
2023-01-29T15:38:34.734Z,29.70
2023-01-29T15:41:03.903Z,24.38
2023-01-29T15:43:43.130Z,27.17
2023-01-29T15:46:25.665Z,25.60
2023-01-29T15:48:54.993Z,26.85
2023-01-29T15:51:25.110Z,27.42
2023-01-29T15:54:01.901Z,26.08
2023-01-29T15:56:40.792Z,25.60
2023-01-29T15:59:15.396Z,24.02
2023-01-29T16:01:42.935Z,26.30
2023-01-29T16:04:15.109Z,26.20
2023-01-29T16:06:43.856Z,26.95
2023-01-29T16:09:17.589Z,26.02
2023-01-29T16:11:45.621Z,25.27
2023-01-29T16:14:16.420Z,32.33
2023-01-29T16:16:48.571Z,24.25
2023-01-29T16:19:25.132Z,22.95
2023-01-29T16:22:02.562Z,25.85
2023-01-29T16:24:31.356Z,25.33
2023-01-29T16:27:02.104Z,24.15
2023-01-29T16:29:31.963Z,27.23
2023-01-29T16:32:02.168Z,27.15
2023-01-29T16:34:36.359Z,29.98
2023-01-29T16:39:39.154Z,24.33
2023-01-29T16:42:20.042Z,26.17
2023-01-29T16:45:27.693Z,24.25
2023-01-29T16:48:02.865Z,25.23
2023-01-29T16:50:43.408Z,26.10
2023-01-29T16:53:23.267Z,26.10
2023-01-29T16:55:52.604Z,24.15
2023-01-29T16:58:22.909Z,28.15
2023-01-29T17:00:54.095Z,27.10
2023-01-29T17:03:24.707Z,23.80
2023-01-29T17:05:52.575Z,26.35
2023-01-29T17:08:29.728Z,30.00
2023-01-29T17:10:57.054Z,27.35
2023-01-29T17:13:45.339Z,26.98
2023-01-29T17:16:15.437Z,30.65
2023-01-29T17:18:42.436Z,30.27
2023-01-29T17:21:09.415Z,32.47
2023-01-29T17:23:36.572Z,32.40
2023-01-29T17:26:06.878Z,28.45
2023-01-29T17:28:35.205Z,31.02
2023-01-29T17:31:06.685Z,25.90
2023-01-29T17:33:35.712Z,29.17
2023-01-29T17:36:02.759Z,29.25
2023-01-29T17:38:29.951Z,28.27
2023-01-29T17:41:09.077Z,31.40
2023-01-29T17:43:36.164Z,26.88
2023-01-29T17:46:03.559Z,27.15
2023-01-29T17:48:31.055Z,33.58
2023-01-29T17:51:02.584Z,30.92
2023-01-29T17:53:44.268Z,33.53
2023-01-29T17:56:18.104Z,29.25
2023-01-29T17:58:45.214Z,29.48
2023-01-29T18:01:12.122Z,28.27
2023-01-29T18:03:39.213Z,30.52
2023-01-29T18:06:09.989Z,33.58
2023-01-29T18:08:39.431Z,32.00
2023-01-29T18:11:07.448Z,36.78
2023-01-29T18:13:36.203Z,36.47
2023-01-29T18:16:03.645Z,33.78
2023-01-29T18:18:30.703Z,35.45
2023-01-29T18:20:57.756Z,34.22
2023-01-29T18:23:24.784Z,34.05
2023-01-29T18:25:52.825Z,35.22
2023-01-29T18:28:19.992Z,33.03
2023-01-29T18:30:47.820Z,37.03
2023-01-29T18:33:15.961Z,39.97
2023-01-29T18:35:48.334Z,37.97
2023-01-29T18:38:16.231Z,40.42
2023-01-29T18:40:43.651Z,34.65
2023-01-29T18:43:10.711Z,37.10
2023-01-29T18:45:37.752Z,36.17
2023-01-29T18:48:05.242Z,36.67
2023-01-29T18:50:32.429Z,43.72
2023-01-29T18:52:59.423Z,42.20
2023-01-29T18:55:29.236Z,38.75
2023-01-29T18:58:27.174Z,38.83
2023-01-29T19:00:44.778Z,43.58
2023-01-29T19:03:11.833Z,40.72
2023-01-29T19:05:39.083Z,38.33
2023-01-29T19:08:06.187Z,37.78
2023-01-29T19:10:33.646Z,41.67
2023-01-29T19:13:00.593Z,43.55
2023-01-29T19:15:27.779Z,45.22
2023-01-29T19:17:55.255Z,42.58
2023-01-29T19:20:22.232Z,42.28
2023-01-29T19:22:49.290Z,43.13
2023-01-29T19:25:18.089Z,42.72
2023-01-29T19:27:45.897Z,40.65
2023-01-29T19:30:13.396Z,43.60
2023-01-29T19:32:41.175Z,48.05
2023-01-29T19:35:08.384Z,44.92
2023-01-29T19:37:35.355Z,46.15
2023-01-29T19:40:02.404Z,45.30
2023-01-29T19:42:29.404Z,44.55
2023-01-29T19:44:56.395Z,44.95
2023-01-29T19:47:23.429Z,49.00
2023-01-29T19:49:50.550Z,43.78
2023-01-29T19:52:49.896Z,43.17
2023-01-29T19:55:19.762Z,46.65
2023-01-29T19:57:47.242Z,43.72
2023-01-29T20:00:15.563Z,45.83
2023-01-29T20:02:42.518Z,43.58
2023-01-29T20:05:12.127Z,44.22
2023-01-29T20:07:42.560Z,47.28
2023-01-29T20:10:17.072Z,49.38
2023-01-29T20:12:45.813Z,50.85
2023-01-29T20:15:14.544Z,42.13
2023-01-29T20:17:41.708Z,47.78
2023-01-29T20:20:09.795Z,51.72
2023-01-29T20:22:36.900Z,48.20
2023-01-29T20:25:04.325Z,50.22
2023-01-29T20:27:31.436Z,45.70
2023-01-29T20:29:59.388Z,51.28
2023-01-29T20:32:26.418Z,47.38
2023-01-29T20:34:53.369Z,50.85
2023-01-29T20:37:20.479Z,44.33
2023-01-29T20:39:47.607Z,48.75
2023-01-29T20:42:14.903Z,51.10
2023-01-29T20:44:42.123Z,47.67
2023-01-29T20:47:09.246Z,44.88
2023-01-29T20:49:36.259Z,48.13
2023-01-29T20:52:03.705Z,50.00
2023-01-29T20:54:33.306Z,48.95
2023-01-29T20:57:00.610Z,46.65
2023-01-29T20:59:29.109Z,46.15
2023-01-29T21:01:56.318Z,48.63
2023-01-29T21:04:23.526Z,47.78
2023-01-29T21:06:50.578Z,48.10
2023-01-29T21:09:17.627Z,52.47
2023-01-29T21:11:45.138Z,48.20
2023-01-29T21:14:12.587Z,47.47
2023-01-29T21:16:41.133Z,46.08
2023-01-29T21:19:08.849Z,56.83
2023-01-29T21:21:36.010Z,47.80
2023-01-29T21:24:03.151Z,52.08
2023-01-29T21:26:30.230Z,50.15
2023-01-29T21:28:57.369Z,48.05
2023-01-29T21:31:24.448Z,50.38
2023-01-29T21:33:51.486Z,51.58
2023-01-29T21:36:18.567Z,48.30
2023-01-29T21:38:45.550Z,49.67
2023-01-29T21:41:12.688Z,59.30
2023-01-29T21:43:39.807Z,52.88
2023-01-29T21:46:12.100Z,47.78
2023-01-29T21:48:40.317Z,49.75
2023-01-29T21:51:07.921Z,46.92
2023-01-29T21:53:35.148Z,44.25
2023-01-29T21:56:03.182Z,49.63
2023-01-29T21:58:30.667Z,47.92
2023-01-29T22:01:17.934Z,48.58
2023-01-29T22:03:47.261Z,46.13
2023-01-29T22:06:14.976Z,41.72
2023-01-29T22:08:41.972Z,46.38
2023-01-29T22:11:09.519Z,52.03
2023-01-29T22:13:36.727Z,45.40
2023-01-29T22:16:05.831Z,47.38
2023-01-29T22:18:33.265Z,51.70
2023-01-29T22:21:02.746Z,45.85
2023-01-29T22:23:30.822Z,51.72
2023-01-29T22:26:08.996Z,49.70
2023-01-29T22:28:36.121Z,47.38
2023-01-29T22:31:04.159Z,45.78
2023-01-29T22:33:31.565Z,44.95
2023-01-29T22:35:58.561Z,48.38
2023-01-29T22:38:25.766Z,46.83
2023-01-29T22:40:54.060Z,46.60
2023-01-29T22:43:21.981Z,48.67
2023-01-29T22:45:49.065Z,44.83
2023-01-29T22:48:16.113Z,47.65
2023-01-29T22:50:53.914Z,47.08
2023-01-29T22:53:21.114Z,45.83
2023-01-29T22:55:55.416Z,41.33
2023-01-29T22:58:22.423Z,47.05
2023-01-29T23:00:52.396Z,41.95
2023-01-29T23:03:19.390Z,46.10
2023-01-29T23:05:46.401Z,43.58
2023-01-29T23:08:13.443Z,44.58
2023-01-29T23:10:40.439Z,46.38
2023-01-29T23:13:07.474Z,42.28
2023-01-29T23:15:34.440Z,40.40
2023-01-29T23:18:01.570Z,41.92
2023-01-29T23:20:28.577Z,43.38
2023-01-29T23:22:56.000Z,43.92
2023-01-29T23:25:42.934Z,42.15
2023-01-29T23:28:09.945Z,46.63
2023-01-29T23:30:36.914Z,54.70
2023-01-29T23:33:04.084Z,44.47
2023-01-29T23:35:31.099Z,42.40
2023-01-29T23:37:58.196Z,38.35
2023-01-29T23:40:25.200Z,42.70
2023-01-29T23:42:52.179Z,40.35
2023-01-29T23:45:19.082Z,39.28
2023-01-29T23:47:46.115Z,37.08
2023-01-29T23:50:13.056Z,44.38
2023-01-29T23:52:40.061Z,42.53
2023-01-29T23:55:07.683Z,39.83
2023-01-29T23:57:34.760Z,43.15
